createdAt,value
2019-03-03T00:01:01.954Z,7.52
2019-03-03T00:03:29.029Z,7.44
2019-03-03T00:05:55.611Z,7.40
2019-03-03T00:08:24.567Z,7.32
2019-03-03T00:10:50.902Z,7.25
2019-03-03T00:13:17.497Z,7.12
2019-03-03T00:15:44.176Z,7.01
2019-03-03T00:18:10.766Z,7.00
2019-03-03T00:20:37.488Z,6.88
2019-03-03T00:23:04.187Z,6.81
2019-03-03T00:25:30.866Z,6.76
2019-03-03T00:27:57.515Z,6.67
2019-03-03T00:30:25.138Z,6.61
2019-03-03T00:32:51.835Z,6.57
2019-03-03T00:35:18.559Z,6.53
2019-03-03T00:37:53.962Z,6.57
2019-03-03T00:40:28.438Z,6.41
2019-03-03T00:43:12.058Z,6.42
2019-03-03T00:45:57.406Z,6.28
2019-03-03T00:48:44.311Z,6.12
2019-03-03T00:51:30.938Z,6.11
2019-03-03T00:54:11.710Z,6.16
2019-03-03T00:56:40.212Z,6.11
2019-03-03T00:59:08.668Z,6.01
2019-03-03T01:01:42.968Z,5.97
2019-03-03T01:04:14.015Z,5.87
2019-03-03T01:06:42.500Z,5.91
2019-03-03T01:09:46.042Z,5.85
2019-03-03T01:12:14.773Z,5.78
2019-03-03T01:14:46.107Z,5.71
2019-03-03T01:17:17.360Z,5.67
2019-03-03T01:19:45.763Z,5.72
2019-03-03T01:22:32.363Z,5.63
2019-03-03T01:24:59.049Z,5.57
2019-03-03T01:27:25.676Z,5.46
2019-03-03T01:29:53.491Z,5.33
2019-03-03T01:32:20.286Z,5.28
2019-03-03T01:34:46.981Z,5.31
2019-03-03T01:37:13.671Z,5.33
2019-03-03T01:39:40.394Z,5.32
2019-03-03T01:42:06.988Z,5.30
2019-03-03T01:44:33.663Z,5.23
2019-03-03T01:47:00.326Z,5.13
2019-03-03T01:49:27.013Z,5.19
2019-03-03T01:51:53.777Z,5.16
2019-03-03T01:54:20.476Z,5.03
2019-03-03T01:56:47.087Z,4.98
2019-03-03T01:59:13.733Z,4.90
2019-03-03T02:01:40.477Z,4.82
2019-03-03T02:04:07.075Z,4.80
2019-03-03T02:06:33.667Z,4.78
2019-03-03T02:09:00.339Z,4.71
2019-03-03T02:11:26.951Z,4.73
2019-03-03T02:13:53.563Z,4.65
2019-03-03T02:16:20.367Z,4.64
2019-03-03T02:18:46.956Z,4.60
2019-03-03T02:21:13.581Z,4.63
2019-03-03T02:23:40.488Z,4.57
2019-03-03T02:26:07.078Z,4.47
2019-03-03T02:28:33.695Z,4.45
2019-03-03T02:31:00.365Z,4.40
2019-03-03T02:33:27.172Z,4.34
2019-03-03T02:35:53.909Z,4.34
2019-03-03T02:38:20.658Z,4.35
2019-03-03T02:40:47.248Z,4.24
2019-03-03T02:43:13.928Z,4.31
2019-03-03T02:45:40.611Z,4.23
2019-03-03T02:48:07.302Z,4.19
2019-03-03T02:50:34.011Z,4.12
2019-03-03T02:53:00.746Z,4.07
2019-03-03T02:55:27.352Z,4.02
2019-03-03T02:57:54.023Z,3.98
2019-03-03T03:00:22.007Z,3.94
2019-03-03T03:02:50.037Z,3.92
2019-03-03T03:05:20.035Z,3.90
2019-03-03T03:07:48.532Z,3.87
2019-03-03T03:10:26.010Z,3.83
2019-03-03T03:12:54.436Z,3.74
2019-03-03T03:15:25.786Z,3.75
2019-03-03T03:17:54.198Z,3.69
2019-03-03T03:20:37.743Z,3.58
2019-03-03T03:23:18.299Z,3.59
2019-03-03T03:26:03.730Z,3.59
2019-03-03T03:28:35.142Z,3.56
2019-03-03T03:31:06.453Z,3.45
2019-03-03T03:33:34.858Z,3.40
2019-03-03T03:36:06.424Z,3.44
2019-03-03T03:38:43.792Z,3.45
2019-03-03T03:41:12.194Z,3.44
2019-03-03T03:43:57.208Z,3.49
2019-03-03T03:46:38.709Z,3.50
2019-03-03T03:49:10.014Z,3.50
2019-03-03T03:51:56.101Z,3.41
2019-03-03T03:54:27.515Z,3.41
2019-03-03T03:56:58.942Z,3.33
2019-03-03T03:59:33.236Z,3.35
2019-03-03T04:02:07.596Z,3.39
2019-03-03T04:04:41.666Z,3.35
2019-03-03T04:07:10.169Z,3.29
2019-03-03T04:09:41.147Z,3.29
2019-03-03T04:12:26.207Z,3.18
2019-03-03T04:15:00.715Z,3.23
2019-03-03T04:17:32.160Z,3.17
2019-03-03T04:20:06.189Z,3.08
2019-03-03T04:22:40.794Z,3.08
2019-03-03T04:25:09.194Z,3.08
2019-03-03T04:27:37.660Z,3.07
2019-03-03T04:30:09.037Z,3.05
2019-03-03T04:32:52.931Z,2.98
2019-03-03T04:35:21.369Z,2.91
2019-03-03T04:37:56.026Z,2.88
2019-03-03T04:40:30.479Z,2.94
2019-03-03T04:42:59.011Z,2.91
2019-03-03T04:45:27.533Z,2.92
2019-03-03T04:47:55.952Z,2.92
2019-03-03T04:50:30.497Z,2.90
2019-03-03T04:53:02.112Z,2.83
2019-03-03T04:55:34.694Z,2.77
2019-03-03T04:58:19.792Z,2.73
2019-03-03T05:01:05.071Z,2.59
2019-03-03T05:03:54.018Z,2.59
2019-03-03T05:06:30.107Z,2.61
2019-03-03T05:08:58.587Z,2.55
2019-03-03T05:11:59.915Z,2.46
2019-03-03T05:14:28.373Z,2.52
2019-03-03T05:16:56.794Z,2.44
2019-03-03T05:19:23.520Z,2.45
2019-03-03T05:21:50.123Z,2.43
2019-03-03T05:24:16.789Z,2.39
2019-03-03T05:26:43.469Z,2.40
2019-03-03T05:29:10.159Z,2.42
2019-03-03T05:31:36.804Z,2.41
2019-03-03T05:34:03.534Z,2.31
2019-03-03T05:36:30.130Z,2.30
2019-03-03T05:38:56.813Z,2.35
2019-03-03T05:41:23.543Z,2.29
2019-03-03T05:43:51.204Z,2.21
2019-03-03T05:46:17.845Z,2.19
2019-03-03T05:48:44.533Z,2.24
2019-03-03T05:51:11.137Z,2.24
2019-03-03T05:53:37.799Z,2.08
2019-03-03T05:56:04.458Z,1.79
2019-03-03T05:58:31.174Z,1.61
2019-03-03T06:00:57.862Z,1.86
2019-03-03T06:03:24.670Z,2.05
2019-03-03T06:05:51.298Z,2.06
2019-03-03T06:08:18.037Z,2.05
2019-03-03T06:10:44.728Z,1.98
2019-03-03T06:13:11.451Z,1.81
2019-03-03T06:15:38.148Z,1.82
2019-03-03T06:18:04.902Z,1.97
2019-03-03T06:20:31.644Z,2.21
2019-03-03T06:22:58.298Z,2.38
2019-03-03T06:25:24.983Z,2.64
2019-03-03T06:27:51.674Z,2.75
2019-03-03T06:30:18.387Z,2.82
2019-03-03T06:32:45.094Z,2.93
2019-03-03T06:35:12.487Z,3.27
2019-03-03T06:37:39.161Z,3.43
2019-03-03T06:40:08.404Z,3.50
2019-03-03T06:42:35.053Z,3.71
2019-03-03T06:45:01.788Z,3.84
2019-03-03T06:47:28.534Z,4.13
2019-03-03T06:49:55.166Z,4.31
2019-03-03T06:52:21.816Z,4.46
2019-03-03T06:54:48.595Z,4.81
2019-03-03T06:57:15.243Z,5.05
2019-03-03T06:59:41.926Z,5.20
2019-03-03T07:02:08.741Z,5.26
2019-03-03T07:04:35.404Z,5.24
2019-03-03T07:07:02.028Z,5.40
2019-03-03T07:09:28.775Z,5.39
2019-03-03T07:11:55.413Z,5.48
2019-03-03T07:14:22.059Z,5.54
2019-03-03T07:16:48.814Z,5.73
2019-03-03T07:19:15.451Z,5.89
2019-03-03T07:21:42.070Z,6.00
2019-03-03T07:24:08.755Z,5.94
2019-03-03T07:26:35.355Z,6.03
2019-03-03T07:29:02.038Z,6.05
2019-03-03T07:31:28.714Z,6.12
2019-03-03T07:33:55.733Z,6.28
2019-03-03T07:36:22.445Z,6.17
2019-03-03T07:38:49.142Z,6.46
2019-03-03T07:41:15.829Z,6.62
2019-03-03T07:43:42.461Z,6.71
2019-03-03T07:46:09.168Z,6.93
2019-03-03T07:48:35.838Z,7.34
2019-03-03T07:51:02.492Z,7.58
2019-03-03T07:53:29.196Z,7.71
2019-03-03T07:55:55.797Z,7.80
2019-03-03T07:58:22.451Z,8.07
2019-03-03T08:00:49.129Z,8.16
2019-03-03T08:03:15.778Z,8.26
2019-03-03T08:05:42.455Z,8.41
2019-03-03T08:08:09.173Z,8.68
2019-03-03T08:10:35.769Z,8.82
2019-03-03T08:13:09.230Z,8.80
2019-03-03T08:15:31.041Z,8.89
2019-03-03T08:17:57.691Z,9.06
2019-03-03T08:20:24.419Z,9.13
2019-03-03T08:22:51.086Z,9.05
2019-03-03T08:25:17.819Z,9.27
2019-03-03T08:27:44.515Z,9.41
2019-03-03T08:30:15.589Z,9.68
2019-03-03T08:32:42.168Z,9.88
2019-03-03T08:35:11.471Z,10.05
2019-03-03T08:37:39.153Z,10.40
2019-03-03T08:40:07.946Z,10.54
2019-03-03T08:42:36.472Z,10.20
2019-03-03T08:45:06.592Z,10.32
2019-03-03T08:47:35.023Z,10.51
2019-03-03T08:50:03.550Z,10.62
2019-03-03T08:52:32.191Z,10.70
2019-03-03T08:55:00.619Z,10.78
2019-03-03T08:57:35.073Z,10.83
2019-03-03T09:00:10.100Z,11.00
2019-03-03T09:02:41.571Z,11.12
2019-03-03T09:05:16.095Z,11.33
2019-03-03T09:07:50.152Z,11.13
2019-03-03T09:10:27.399Z,11.35
2019-03-03T09:12:58.908Z,11.63
2019-03-03T09:15:39.814Z,11.83
2019-03-03T09:18:08.219Z,11.97
2019-03-03T09:20:39.479Z,12.22
2019-03-03T09:23:20.061Z,12.44
2019-03-03T09:25:48.528Z,12.48
2019-03-03T09:28:25.876Z,12.87
2019-03-03T09:31:00.428Z,13.25
2019-03-03T09:33:39.384Z,13.43
2019-03-03T09:36:31.713Z,13.71
2019-03-03T09:39:34.578Z,14.54
2019-03-03T09:42:10.667Z,15.37
2019-03-03T09:44:45.133Z,15.27
2019-03-03T09:47:16.838Z,14.94
2019-03-03T09:49:45.459Z,15.24
2019-03-03T09:52:13.974Z,15.48
2019-03-03T09:54:43.535Z,15.93
2019-03-03T09:57:18.393Z,15.72
2019-03-03T09:59:52.746Z,15.21
2019-03-03T10:02:27.392Z,15.19
2019-03-03T10:04:59.175Z,16.01
2019-03-03T10:07:33.525Z,16.45
2019-03-03T10:10:17.111Z,16.51
2019-03-03T10:13:03.968Z,16.51
2019-03-03T10:15:50.536Z,16.67
2019-03-03T10:18:31.110Z,15.87
2019-03-03T10:21:03.426Z,15.79
2019-03-03T10:23:39.009Z,15.81
2019-03-03T10:26:10.324Z,16.30
2019-03-03T10:28:45.143Z,17.05
2019-03-03T10:31:22.931Z,17.05
2019-03-03T10:33:51.466Z,16.95
2019-03-03T10:36:19.895Z,16.97
2019-03-03T10:38:57.357Z,16.82
2019-03-03T10:41:34.695Z,16.83
2019-03-03T10:44:05.998Z,16.33
2019-03-03T10:46:34.489Z,16.63
2019-03-03T10:49:08.770Z,17.13
2019-03-03T10:51:37.328Z,17.57
2019-03-03T10:54:18.121Z,17.92
2019-03-03T10:56:46.511Z,18.07
2019-03-03T10:59:17.739Z,18.43
2019-03-03T11:01:55.310Z,18.85
2019-03-03T11:04:24.747Z,18.45
2019-03-03T11:06:56.109Z,17.78
2019-03-03T11:09:41.493Z,18.07
2019-03-03T11:12:18.787Z,18.24
2019-03-03T11:14:56.546Z,18.34
2019-03-03T11:17:27.555Z,18.49
2019-03-03T11:19:59.301Z,18.38
2019-03-03T11:22:34.250Z,19.30
2019-03-03T11:25:15.851Z,19.91
2019-03-03T11:27:56.359Z,20.31
2019-03-03T11:30:38.453Z,20.38
2019-03-03T11:33:11.211Z,20.39
2019-03-03T11:35:53.111Z,20.31
2019-03-03T11:38:38.207Z,21.10
2019-03-03T11:41:21.786Z,21.12
2019-03-03T11:43:50.322Z,21.23
2019-03-03T11:46:21.954Z,20.96
2019-03-03T11:48:50.461Z,20.99
2019-03-03T11:51:35.852Z,21.02
2019-03-03T11:54:04.474Z,21.05
2019-03-03T11:56:49.611Z,21.23
2019-03-03T11:59:20.944Z,21.32
2019-03-03T12:01:59.536Z,21.61
2019-03-03T12:04:46.156Z,21.40
2019-03-03T12:07:26.835Z,21.29
2019-03-03T12:10:12.223Z,20.74
2019-03-03T12:12:49.613Z,20.68
2019-03-03T12:15:20.389Z,20.88
2019-03-03T12:17:54.705Z,21.26
2019-03-03T12:20:35.103Z,21.33
2019-03-03T12:23:06.393Z,21.18
2019-03-03T12:25:51.195Z,21.18
2019-03-03T12:28:36.274Z,21.48
2019-03-03T12:31:04.793Z,21.50
2019-03-03T12:33:36.049Z,21.16
2019-03-03T12:36:13.144Z,21.12
2019-03-03T12:38:47.664Z,20.61
2019-03-03T12:41:34.400Z,20.04
2019-03-03T12:44:02.834Z,20.12
2019-03-03T12:46:36.922Z,20.42
2019-03-03T12:49:11.270Z,20.64
2019-03-03T12:51:39.698Z,20.75
2019-03-03T12:54:24.721Z,20.61
2019-03-03T12:56:58.987Z,20.55
2019-03-03T12:59:39.399Z,20.23
2019-03-03T13:02:26.087Z,20.08
2019-03-03T13:05:12.162Z,20.27
2019-03-03T13:08:08.237Z,20.33
2019-03-03T13:10:39.827Z,20.40
2019-03-03T13:13:11.266Z,20.58
2019-03-03T13:15:48.841Z,20.07
2019-03-03T13:18:21.058Z,20.15
2019-03-03T13:20:55.499Z,20.03
2019-03-03T13:23:32.735Z,19.98
2019-03-03T13:26:07.214Z,19.98
2019-03-03T13:28:35.647Z,20.29
2019-03-03T13:31:13.179Z,20.25
2019-03-03T13:33:50.681Z,19.67
2019-03-03T13:36:37.343Z,19.66
2019-03-03T13:39:11.568Z,20.12
2019-03-03T13:41:40.044Z,20.12
2019-03-03T13:44:06.722Z,20.02
2019-03-03T13:46:33.347Z,19.84
2019-03-03T13:48:59.998Z,19.91
2019-03-03T13:51:26.751Z,19.74
2019-03-03T13:53:53.347Z,19.57
2019-03-03T13:56:20.018Z,19.80
2019-03-03T13:58:46.802Z,19.72
2019-03-03T14:01:13.422Z,19.60
2019-03-03T14:03:40.090Z,19.48
2019-03-03T14:06:07.808Z,19.26
2019-03-03T14:08:34.448Z,19.15
2019-03-03T14:11:01.077Z,19.18
2019-03-03T14:13:27.778Z,19.11
2019-03-03T14:15:54.407Z,19.01
2019-03-03T14:18:22.102Z,19.13
2019-03-03T14:20:48.859Z,19.07
2019-03-03T14:23:15.594Z,18.81
2019-03-03T14:25:42.306Z,18.66
2019-03-03T14:28:09.015Z,18.69
2019-03-03T14:30:35.667Z,18.91
2019-03-03T14:33:02.415Z,18.96
2019-03-03T14:35:29.121Z,18.93
2019-03-03T14:37:57.695Z,18.78
2019-03-03T14:40:24.440Z,18.81
2019-03-03T14:42:51.241Z,18.92
2019-03-03T14:45:18.572Z,18.86
2019-03-03T14:47:45.388Z,18.67
2019-03-03T14:50:20.500Z,18.62
2019-03-03T14:52:50.101Z,18.56
2019-03-03T14:55:18.086Z,18.30
2019-03-03T14:57:44.726Z,18.19
2019-03-03T15:00:28.687Z,17.95
2019-03-03T15:02:56.179Z,17.80
2019-03-03T15:05:22.864Z,17.59
2019-03-03T15:07:49.531Z,17.48
2019-03-03T15:10:16.189Z,17.58
2019-03-03T15:12:42.875Z,17.36
2019-03-03T15:15:12.403Z,17.13
2019-03-03T15:17:39.086Z,17.08
2019-03-03T15:20:06.901Z,17.01
2019-03-03T15:22:33.617Z,16.83
2019-03-03T15:25:00.349Z,16.75
2019-03-03T15:27:27.420Z,16.65
2019-03-03T15:29:54.185Z,16.57
2019-03-03T15:32:20.847Z,16.49
2019-03-03T15:34:47.529Z,16.42
2019-03-03T15:37:15.506Z,16.30
2019-03-03T15:39:42.162Z,16.21
2019-03-03T15:42:09.510Z,16.13
2019-03-03T15:44:36.231Z,16.13
2019-03-03T15:47:02.824Z,16.11
2019-03-03T15:49:30.280Z,16.13
2019-03-03T15:51:58.251Z,16.08
2019-03-03T15:54:24.919Z,15.96
2019-03-03T15:56:51.541Z,15.91
2019-03-03T15:59:18.248Z,15.84
2019-03-03T16:01:44.986Z,15.84
2019-03-03T16:04:11.683Z,15.79
2019-03-03T16:06:38.518Z,15.71
2019-03-03T16:09:05.229Z,15.67
2019-03-03T16:11:33.754Z,15.63
2019-03-03T16:14:00.356Z,15.61
2019-03-03T16:16:27.192Z,15.54
2019-03-03T16:18:53.938Z,15.48
2019-03-03T16:21:20.646Z,15.41
2019-03-03T16:23:47.283Z,15.34
2019-03-03T16:26:14.007Z,15.21
2019-03-03T16:28:40.626Z,15.07
2019-03-03T16:31:07.288Z,14.99
2019-03-03T16:33:34.044Z,14.88
2019-03-03T16:36:00.689Z,14.82
2019-03-03T16:38:27.319Z,14.86
2019-03-03T16:40:55.130Z,14.84
2019-03-03T16:43:21.765Z,14.71
2019-03-03T16:45:48.462Z,14.61
2019-03-03T16:48:15.181Z,14.62
2019-03-03T16:50:41.799Z,14.48
2019-03-03T16:53:08.577Z,14.32
2019-03-03T16:55:35.358Z,14.20
2019-03-03T16:58:01.984Z,14.09
2019-03-03T17:00:28.732Z,14.03
2019-03-03T17:02:55.404Z,13.94
2019-03-03T17:05:26.235Z,13.85
2019-03-03T17:07:52.895Z,13.68
2019-03-03T17:10:19.764Z,13.61
2019-03-03T17:12:46.463Z,13.59
2019-03-03T17:15:21.653Z,13.57
2019-03-03T17:17:48.321Z,13.51
2019-03-03T17:20:14.977Z,13.45
2019-03-03T17:22:41.628Z,13.26
2019-03-03T17:25:11.491Z,13.26
2019-03-03T17:27:38.119Z,13.26
2019-03-03T17:30:08.437Z,13.24
2019-03-03T17:32:35.137Z,13.21
2019-03-03T17:35:01.789Z,13.19
2019-03-03T17:37:28.506Z,13.15
2019-03-03T17:39:55.191Z,13.07
2019-03-03T17:42:21.916Z,12.98
2019-03-03T17:44:48.631Z,12.95
2019-03-03T17:47:15.357Z,12.82
2019-03-03T17:49:42.061Z,12.85
2019-03-03T17:52:08.730Z,12.85
2019-03-03T17:54:35.556Z,12.85
2019-03-03T17:57:02.335Z,12.80
2019-03-03T17:59:32.050Z,12.69
2019-03-03T18:01:58.796Z,12.65
2019-03-03T18:04:25.596Z,12.67
2019-03-03T18:06:53.462Z,12.66
2019-03-03T18:09:20.561Z,12.61
2019-03-03T18:11:47.266Z,12.59
2019-03-03T18:14:13.944Z,12.55
2019-03-03T18:16:40.635Z,12.50
2019-03-03T18:19:07.350Z,12.49
2019-03-03T18:21:34.065Z,12.46
2019-03-03T18:24:00.690Z,12.35
2019-03-03T18:26:27.379Z,12.35
2019-03-03T18:28:54.112Z,12.31
2019-03-03T18:31:20.794Z,12.27
2019-03-03T18:33:47.512Z,12.30
2019-03-03T18:36:14.653Z,12.11
2019-03-03T18:38:41.436Z,12.14
2019-03-03T18:41:08.110Z,12.07
2019-03-03T18:43:34.834Z,12.15
2019-03-03T18:46:01.423Z,12.08
2019-03-03T18:48:28.043Z,12.10
2019-03-03T18:50:54.718Z,12.03
2019-03-03T18:53:21.334Z,11.93
2019-03-03T18:55:48.646Z,11.96
2019-03-03T18:58:15.326Z,11.88
2019-03-03T19:00:41.940Z,11.93
2019-03-03T19:03:08.557Z,11.90
2019-03-03T19:05:36.322Z,11.81
2019-03-03T19:08:03.052Z,11.78
2019-03-03T19:10:34.301Z,11.70
2019-03-03T19:13:01.002Z,11.58
2019-03-03T19:15:27.663Z,11.62
2019-03-03T19:17:54.283Z,11.62
2019-03-03T19:20:21.225Z,11.59
2019-03-03T19:22:48.140Z,11.59
2019-03-03T19:25:15.199Z,11.50
2019-03-03T19:27:42.088Z,11.35
2019-03-03T19:30:25.774Z,11.44
2019-03-03T19:33:01.898Z,11.43
2019-03-03T19:35:28.602Z,11.46
2019-03-03T19:37:55.415Z,11.38
2019-03-03T19:40:22.100Z,11.31
2019-03-03T19:42:48.774Z,11.34
2019-03-03T19:45:18.704Z,11.30
2019-03-03T19:47:45.511Z,11.30
2019-03-03T19:50:13.305Z,11.26
2019-03-03T19:52:40.038Z,11.24
2019-03-03T19:55:09.563Z,11.19
2019-03-03T19:57:36.307Z,11.26
2019-03-03T20:00:12.103Z,11.19
2019-03-03T20:02:38.859Z,11.16
2019-03-03T20:05:05.655Z,11.08
2019-03-03T20:07:34.145Z,11.14
2019-03-03T20:10:03.493Z,11.16
2019-03-03T20:12:30.800Z,11.01
2019-03-03T20:14:57.410Z,11.00
2019-03-03T20:17:24.094Z,10.96
2019-03-03T20:19:50.784Z,10.95
2019-03-03T20:22:17.604Z,10.97
2019-03-03T20:24:45.083Z,10.97
2019-03-03T20:27:11.844Z,10.93
2019-03-03T20:29:38.437Z,10.92
2019-03-03T20:32:05.120Z,10.92
2019-03-03T20:34:31.784Z,10.80
2019-03-03T20:36:58.470Z,10.73
2019-03-03T20:39:25.229Z,10.73
2019-03-03T20:41:51.987Z,10.68
2019-03-03T20:44:18.615Z,10.59
2019-03-03T20:46:45.333Z,10.46
2019-03-03T20:49:12.054Z,10.40
2019-03-03T20:51:38.802Z,10.34
2019-03-03T20:54:05.534Z,10.44
2019-03-03T20:56:32.258Z,10.50
2019-03-03T20:58:58.961Z,10.46
2019-03-03T21:01:25.653Z,10.36
2019-03-03T21:03:52.328Z,10.32
2019-03-03T21:06:18.955Z,10.28
2019-03-03T21:08:45.704Z,10.31
2019-03-03T21:11:12.378Z,10.37
2019-03-03T21:13:39.121Z,10.40
2019-03-03T21:16:05.798Z,10.40
2019-03-03T21:18:32.499Z,10.39
2019-03-03T21:20:59.292Z,10.40
2019-03-03T21:23:26.126Z,10.38
2019-03-03T21:25:52.735Z,10.29
2019-03-03T21:28:19.387Z,10.25
2019-03-03T21:30:46.067Z,10.28
2019-03-03T21:33:12.815Z,10.26
2019-03-03T21:35:39.514Z,10.15
2019-03-03T21:38:06.226Z,10.06
2019-03-03T21:40:32.880Z,10.04
2019-03-03T21:42:59.536Z,10.06
2019-03-03T21:45:27.689Z,10.08
2019-03-03T21:47:55.039Z,10.02
2019-03-03T21:50:24.176Z,9.97
2019-03-03T21:52:50.897Z,9.97
2019-03-03T21:55:17.507Z,9.89
2019-03-03T21:57:44.178Z,9.92
2019-03-03T22:00:25.568Z,9.93
2019-03-03T22:02:52.396Z,9.89
2019-03-03T22:05:19.132Z,9.88
2019-03-03T22:07:45.976Z,9.88
2019-03-03T22:10:12.707Z,9.84
2019-03-03T22:12:39.449Z,9.84
2019-03-03T22:15:08.755Z,9.77
2019-03-03T22:17:35.384Z,9.68
2019-03-03T22:20:02.127Z,9.65
2019-03-03T22:22:28.861Z,9.68
2019-03-03T22:24:55.504Z,9.62
2019-03-03T22:27:22.246Z,9.58
2019-03-03T22:29:48.984Z,9.56
2019-03-03T22:32:15.598Z,9.60
2019-03-03T22:34:42.261Z,9.54
2019-03-03T22:37:09.010Z,9.47
2019-03-03T22:39:35.651Z,9.47
2019-03-03T22:42:02.275Z,9.47
2019-03-03T22:44:28.946Z,9.43
2019-03-03T22:46:55.533Z,9.37
2019-03-03T22:49:22.241Z,9.28
2019-03-03T22:51:48.939Z,9.27
2019-03-03T22:54:15.650Z,9.25
2019-03-03T22:56:42.356Z,9.21
2019-03-03T22:59:09.096Z,9.20
2019-03-03T23:01:36.564Z,9.18
2019-03-03T23:04:09.990Z,9.15
2019-03-03T23:06:52.558Z,9.15
2019-03-03T23:09:31.663Z,9.13
2019-03-03T23:12:07.908Z,9.15
2019-03-03T23:14:44.232Z,9.17
2019-03-03T23:17:31.203Z,9.23
2019-03-03T23:20:19.388Z,9.25
2019-03-03T23:22:58.151Z,9.32
2019-03-03T23:25:34.654Z,9.30
2019-03-03T23:28:01.337Z,9.32
2019-03-03T23:30:27.982Z,9.28
2019-03-03T23:32:54.601Z,9.30
2019-03-03T23:35:21.442Z,9.30
2019-03-03T23:37:48.118Z,9.26
2019-03-03T23:40:14.835Z,9.23
2019-03-03T23:42:41.519Z,9.22
2019-03-03T23:45:09.469Z,9.17
2019-03-03T23:47:36.099Z,9.17
2019-03-03T23:50:04.506Z,9.18
2019-03-03T23:52:31.101Z,9.17
2019-03-03T23:54:57.810Z,9.10
2019-03-03T23:57:24.500Z,9.14
2019-03-03T23:59:51.124Z,9.17
